createdAt,value
2023-05-10T00:00:54.918Z,0.00
2023-05-10T00:01:54.947Z,0.00
2023-05-10T00:02:55.020Z,0.00
2023-05-10T00:03:55.880Z,0.00
2023-05-10T00:04:54.949Z,0.00
2023-05-10T00:05:54.913Z,0.00
2023-05-10T00:06:54.881Z,0.00
2023-05-10T00:07:54.870Z,0.00
2023-05-10T00:08:55.792Z,0.00
2023-05-10T00:09:54.843Z,0.00
2023-05-10T00:10:54.786Z,0.00
2023-05-10T00:11:54.797Z,0.00
2023-05-10T00:12:54.892Z,0.00
2023-05-10T00:13:55.681Z,0.00
2023-05-10T00:14:54.803Z,0.00
2023-05-10T00:15:54.742Z,0.00
2023-05-10T00:16:54.933Z,0.00
2023-05-10T00:17:54.773Z,0.00
2023-05-10T00:18:54.719Z,0.00
2023-05-10T00:19:55.601Z,0.00
2023-05-10T00:20:54.671Z,0.00
2023-05-10T00:21:54.696Z,0.00
2023-05-10T00:22:54.708Z,0.00
2023-05-10T00:23:54.632Z,0.00
2023-05-10T00:24:54.640Z,0.00
2023-05-10T00:25:55.538Z,0.00
2023-05-10T00:26:54.714Z,0.00
2023-05-10T00:27:54.589Z,0.00
2023-05-10T00:28:54.565Z,0.00
2023-05-10T00:29:54.636Z,0.00
2023-05-10T00:30:55.468Z,0.00
2023-05-10T00:31:54.562Z,0.00
2023-05-10T00:32:54.530Z,0.00
2023-05-10T00:33:54.551Z,0.00
2023-05-10T00:34:54.513Z,0.00
2023-05-10T00:35:55.437Z,0.00
2023-05-10T00:36:54.589Z,0.00
2023-05-10T00:37:54.453Z,0.00
2023-05-10T00:38:54.458Z,0.00
2023-05-10T00:39:54.505Z,0.00
2023-05-10T00:40:54.435Z,0.00
2023-05-10T00:41:55.482Z,0.00
2023-05-10T00:42:54.393Z,0.00
2023-05-10T00:43:54.372Z,0.00
2023-05-10T00:44:54.484Z,0.00
2023-05-10T00:45:54.403Z,0.00
2023-05-10T00:46:54.351Z,0.00
2023-05-10T00:47:55.357Z,0.00
2023-05-10T00:48:54.304Z,0.00
2023-05-10T00:49:54.320Z,0.00
2023-05-10T00:50:54.305Z,0.00
2023-05-10T00:51:54.327Z,0.00
2023-05-10T00:52:55.175Z,0.00
2023-05-10T00:53:54.299Z,0.00
2023-05-10T00:54:54.235Z,0.00
2023-05-10T00:55:54.270Z,0.00
2023-05-10T00:56:54.215Z,0.00
2023-05-10T00:57:55.123Z,0.00
2023-05-10T00:58:54.167Z,0.00
2023-05-10T00:59:54.190Z,0.00
2023-05-10T01:00:54.137Z,0.00
2023-05-10T01:01:54.196Z,0.00
2023-05-10T01:02:54.224Z,0.00
2023-05-10T01:03:55.187Z,0.00
2023-05-10T01:04:54.133Z,0.00
2023-05-10T01:05:54.084Z,0.00
2023-05-10T01:06:54.078Z,0.00
2023-05-10T01:07:54.124Z,0.00
2023-05-10T01:08:55.041Z,0.00
2023-05-10T01:09:54.050Z,0.00
2023-05-10T01:10:54.034Z,0.00
2023-05-10T01:11:54.037Z,0.00
2023-05-10T01:12:54.007Z,0.00
2023-05-10T01:13:54.986Z,0.00
2023-05-10T01:14:53.988Z,0.00
2023-05-10T01:15:53.994Z,0.00
2023-05-10T01:16:53.973Z,0.00
2023-05-10T01:17:53.995Z,0.00
2023-05-10T01:18:53.964Z,0.00
2023-05-10T01:19:54.870Z,0.00
2023-05-10T01:20:55.599Z,0.00
2023-05-10T01:21:53.935Z,0.00
2023-05-10T01:22:53.920Z,0.00
2023-05-10T01:23:53.842Z,0.00
2023-05-10T01:24:54.788Z,0.00
2023-05-10T01:25:53.856Z,0.00
2023-05-10T01:26:53.812Z,0.00
2023-05-10T01:27:53.880Z,0.00
2023-05-10T01:28:53.791Z,0.00
2023-05-10T01:30:21.775Z,0.00
2023-05-10T01:30:55.820Z,0.00
2023-05-10T01:31:53.749Z,0.00
2023-05-10T01:32:53.843Z,0.00
2023-05-10T01:33:53.765Z,0.00
2023-05-10T01:34:53.766Z,0.00
2023-05-10T01:35:54.682Z,0.00
2023-05-10T01:36:53.713Z,0.00
2023-05-10T01:37:53.695Z,0.00
2023-05-10T01:38:53.708Z,0.00
2023-05-10T01:39:53.652Z,0.00
2023-05-10T01:40:53.643Z,0.00
2023-05-10T01:41:54.555Z,0.00
2023-05-10T01:42:53.632Z,0.00
2023-05-10T01:43:53.634Z,0.00
2023-05-10T01:44:53.607Z,0.00
2023-05-10T01:45:53.579Z,0.00
2023-05-10T01:46:54.529Z,0.00
2023-05-10T01:47:53.592Z,0.00
2023-05-10T01:48:53.543Z,0.00
2023-05-10T01:49:53.535Z,0.00
2023-05-10T01:50:53.500Z,0.00
2023-05-10T01:51:54.419Z,0.00
2023-05-10T01:52:53.523Z,0.00
2023-05-10T01:53:53.442Z,0.00
2023-05-10T01:54:53.484Z,0.00
2023-05-10T01:55:53.518Z,0.00
2023-05-10T01:56:53.427Z,0.00
2023-05-10T01:57:54.362Z,0.00
2023-05-10T01:58:53.396Z,0.00
2023-05-10T01:59:53.431Z,0.00
2023-05-10T02:00:53.511Z,0.00
2023-05-10T02:01:53.346Z,0.00
2023-05-10T02:02:53.388Z,0.00
2023-05-10T02:03:54.329Z,0.00
2023-05-10T02:04:53.361Z,0.00
2023-05-10T02:05:53.324Z,0.00
2023-05-10T02:06:53.311Z,0.00
2023-05-10T02:07:53.353Z,0.00
2023-05-10T02:08:53.289Z,0.00
2023-05-10T02:09:54.234Z,0.00
2023-05-10T02:10:53.345Z,0.00
2023-05-10T02:11:53.277Z,0.00
2023-05-10T02:12:53.287Z,0.00
2023-05-10T02:13:53.201Z,0.00
2023-05-10T02:14:54.210Z,0.00
2023-05-10T02:15:53.236Z,0.00
2023-05-10T02:16:53.221Z,0.00
2023-05-10T02:17:53.197Z,0.00
2023-05-10T02:18:53.180Z,0.00
2023-05-10T02:19:53.185Z,0.00
2023-05-10T02:20:54.039Z,0.00
2023-05-10T02:21:53.148Z,0.00
2023-05-10T02:22:53.108Z,0.00
2023-05-10T02:23:53.099Z,0.00
2023-05-10T02:24:53.123Z,0.00
2023-05-10T02:25:54.050Z,0.00
2023-05-10T02:26:53.031Z,0.00
2023-05-10T02:27:53.021Z,0.00
2023-05-10T02:28:53.026Z,0.00
2023-05-10T02:29:53.025Z,0.00
2023-05-10T02:30:53.001Z,0.00
2023-05-10T02:31:53.963Z,0.00
2023-05-10T02:32:53.012Z,0.00
2023-05-10T02:33:53.575Z,0.00
2023-05-10T02:34:53.069Z,0.00
2023-05-10T02:35:52.933Z,0.00
2023-05-10T02:36:53.827Z,0.00
2023-05-10T02:37:52.987Z,0.00
2023-05-10T02:38:52.921Z,0.00
2023-05-10T02:39:52.862Z,0.00
2023-05-10T02:40:52.888Z,0.00
2023-05-10T02:41:52.874Z,0.00
2023-05-10T02:42:53.772Z,0.00
2023-05-10T02:43:52.914Z,0.00
2023-05-10T02:44:52.831Z,0.00
2023-05-10T02:45:52.907Z,0.00
2023-05-10T02:46:52.778Z,0.00
2023-05-10T02:47:53.745Z,4.00
2023-05-10T02:48:52.754Z,0.00
2023-05-10T02:49:52.776Z,0.00
2023-05-10T02:50:52.771Z,4.00
2023-05-10T02:51:52.699Z,4.00
2023-05-10T02:52:53.348Z,4.00
2023-05-10T02:53:53.666Z,4.00
2023-05-10T02:54:52.706Z,4.00
2023-05-10T02:55:52.726Z,4.00
2023-05-10T02:56:52.637Z,4.00
2023-05-10T02:57:52.641Z,4.00
2023-05-10T02:58:52.637Z,8.00
2023-05-10T02:59:53.593Z,8.00
2023-05-10T03:00:52.598Z,8.00
2023-05-10T03:01:52.697Z,12.00
2023-05-10T03:02:52.700Z,16.00
2023-05-10T03:03:52.550Z,16.00
2023-05-10T03:04:52.539Z,16.00
2023-05-10T03:05:53.465Z,20.00
2023-05-10T03:06:52.756Z,20.00
2023-05-10T03:07:52.528Z,24.00
2023-05-10T03:08:52.492Z,28.00
2023-05-10T03:09:53.460Z,36.00
2023-05-10T03:10:53.449Z,36.00
2023-05-10T03:11:52.491Z,40.00
2023-05-10T03:12:52.496Z,48.00
2023-05-10T03:13:52.444Z,52.00
2023-05-10T03:14:52.551Z,56.00
2023-05-10T03:15:53.386Z,64.00
2023-05-10T03:16:52.445Z,68.00
2023-05-10T03:17:52.467Z,76.00
2023-05-10T03:18:52.373Z,80.00
2023-05-10T03:19:52.349Z,92.00
2023-05-10T03:20:52.396Z,100.00
2023-05-10T03:21:53.314Z,104.00
2023-05-10T03:22:52.312Z,116.00
2023-05-10T03:23:52.324Z,124.00
2023-05-10T03:24:52.315Z,132.00
2023-05-10T03:25:52.332Z,144.00
2023-05-10T03:26:52.289Z,152.00
2023-05-10T03:27:53.196Z,168.00
2023-05-10T03:28:52.266Z,176.00
2023-05-10T03:29:52.266Z,188.00
2023-05-10T03:30:52.202Z,204.00
2023-05-10T03:31:52.350Z,216.00
2023-05-10T03:32:52.216Z,224.00
2023-05-10T03:33:53.105Z,240.00
2023-05-10T03:34:52.171Z,256.00
2023-05-10T03:35:52.160Z,268.00
2023-05-10T03:36:52.224Z,284.00
2023-05-10T03:37:52.094Z,296.00
2023-05-10T03:38:52.145Z,312.00
2023-05-10T03:39:53.029Z,324.00
2023-05-10T03:40:52.238Z,340.00
2023-05-10T03:41:52.071Z,356.00
2023-05-10T03:42:52.065Z,368.00
2023-05-10T03:43:52.076Z,384.00
2023-05-10T03:44:52.036Z,400.00
2023-05-10T03:45:52.953Z,412.00
2023-05-10T03:46:52.032Z,428.00
2023-05-10T03:47:52.035Z,444.00
2023-05-10T03:48:52.010Z,456.00
2023-05-10T03:49:52.021Z,476.00
2023-05-10T03:50:52.869Z,488.00
2023-05-10T03:51:51.926Z,500.00
2023-05-10T03:52:54.577Z,516.00
2023-05-10T03:53:51.901Z,532.00
2023-05-10T03:54:52.081Z,544.00
2023-05-10T03:55:51.916Z,560.00
2023-05-10T03:56:52.869Z,580.00
2023-05-10T03:57:51.929Z,596.00
2023-05-10T03:58:51.869Z,616.00
2023-05-10T03:59:51.954Z,632.00
2023-05-10T04:00:51.827Z,648.00
2023-05-10T04:01:51.819Z,664.00
2023-05-10T04:02:52.823Z,692.00
2023-05-10T04:03:51.855Z,716.00
2023-05-10T04:04:51.763Z,720.00
2023-05-10T04:05:51.796Z,720.00
2023-05-10T04:06:51.759Z,728.00
2023-05-10T04:07:52.685Z,740.00
2023-05-10T04:08:51.751Z,752.00
2023-05-10T04:09:52.000Z,764.00
2023-05-10T04:10:51.704Z,776.00
2023-05-10T04:11:51.666Z,792.00
2023-05-10T04:12:52.699Z,804.00
2023-05-10T04:13:51.702Z,816.00
2023-05-10T04:14:51.710Z,828.00
2023-05-10T04:15:51.611Z,840.00
2023-05-10T04:16:51.712Z,856.00
2023-05-10T04:17:51.621Z,868.00
2023-05-10T04:18:52.616Z,876.00
2023-05-10T04:19:51.560Z,888.00
2023-05-10T04:20:51.578Z,900.00
2023-05-10T04:21:51.571Z,908.00
2023-05-10T04:22:51.527Z,916.00
2023-05-10T04:23:52.473Z,928.00
2023-05-10T04:24:51.539Z,936.00
2023-05-10T04:25:51.493Z,944.00
2023-05-10T04:26:51.592Z,952.00
2023-05-10T04:27:51.452Z,956.00
2023-05-10T04:28:51.560Z,964.00
2023-05-10T04:29:52.436Z,972.00
2023-05-10T04:30:51.436Z,972.00
2023-05-10T04:31:51.470Z,980.00
2023-05-10T04:32:51.458Z,984.00
2023-05-10T04:33:51.421Z,992.00
2023-05-10T04:34:51.397Z,996.00
2023-05-10T04:35:52.290Z,1000.00
2023-05-10T04:36:51.392Z,1004.00
2023-05-10T04:37:51.318Z,1008.00
2023-05-10T04:38:51.362Z,1016.00
2023-05-10T04:39:51.531Z,1020.00
2023-05-10T04:40:51.300Z,1028.00
2023-05-10T04:41:52.271Z,1032.00
2023-05-10T04:42:51.308Z,1040.00
2023-05-10T04:43:51.255Z,1044.00
2023-05-10T04:44:51.307Z,1048.00
2023-05-10T04:45:51.330Z,1056.00
2023-05-10T04:46:51.384Z,1060.00
2023-05-10T04:47:52.309Z,1064.00
2023-05-10T04:48:51.363Z,1068.00
2023-05-10T04:49:51.230Z,1072.00
2023-05-10T04:50:51.210Z,1076.00
2023-05-10T04:51:51.240Z,1084.00
2023-05-10T04:52:52.280Z,1088.00
2023-05-10T04:54:04.708Z,1092.00
2023-05-10T04:54:52.690Z,1100.00
2023-05-10T04:55:51.095Z,1104.00
2023-05-10T04:56:51.105Z,1108.00
2023-05-10T04:57:51.080Z,1112.00
2023-05-10T04:58:52.040Z,1116.00
2023-05-10T04:59:51.063Z,1120.00
2023-05-10T05:00:51.032Z,1124.00
2023-05-10T05:01:51.041Z,1132.00
2023-05-10T05:02:51.115Z,1136.00
2023-05-10T05:03:52.008Z,1140.00
2023-05-10T05:04:51.002Z,1144.00
2023-05-10T05:05:50.992Z,1148.00
2023-05-10T05:06:53.655Z,1148.00
2023-05-10T05:07:50.965Z,1156.00
2023-05-10T05:08:51.901Z,1160.00
2023-05-10T05:09:50.959Z,1164.00
2023-05-10T05:10:50.937Z,1168.00
2023-05-10T05:11:50.899Z,1176.00
2023-05-10T05:12:50.905Z,1176.00
2023-05-10T05:13:50.891Z,1180.00
2023-05-10T05:14:51.802Z,1188.00
2023-05-10T05:15:50.917Z,1192.00
2023-05-10T05:16:50.806Z,1196.00
2023-05-10T05:17:50.888Z,1200.00
2023-05-10T05:18:50.838Z,1204.00
2023-05-10T05:19:50.806Z,1208.00
2023-05-10T05:20:51.740Z,1212.00
2023-05-10T05:21:50.865Z,1220.00
2023-05-10T05:22:50.776Z,1220.00
2023-05-10T05:23:50.727Z,1228.00
2023-05-10T05:24:50.732Z,1228.00
2023-05-10T05:25:50.678Z,1236.00
2023-05-10T05:26:51.649Z,1240.00
2023-05-10T05:27:50.708Z,1248.00
2023-05-10T05:28:50.683Z,1252.00
2023-05-10T05:29:50.674Z,1252.00
2023-05-10T05:30:50.663Z,1260.00
2023-05-10T05:31:51.040Z,1260.00
2023-05-10T05:32:51.753Z,1264.00
2023-05-10T05:33:50.632Z,1268.00
2023-05-10T05:34:50.617Z,1272.00
2023-05-10T05:35:50.605Z,1276.00
2023-05-10T05:36:50.602Z,1280.00
2023-05-10T05:37:50.650Z,1284.00
2023-05-10T05:38:51.496Z,1284.00
2023-05-10T05:39:50.541Z,1292.00
2023-05-10T05:40:50.599Z,1300.00
2023-05-10T05:41:50.603Z,1296.00
2023-05-10T05:42:50.541Z,1304.00
2023-05-10T05:43:51.418Z,1312.00
2023-05-10T05:44:50.492Z,1316.00
2023-05-10T05:45:50.585Z,1320.00
2023-05-10T05:46:50.461Z,1328.00
2023-05-10T05:47:50.462Z,1332.00
2023-05-10T05:48:50.493Z,1336.00
2023-05-10T05:49:51.341Z,1340.00
2023-05-10T05:50:50.424Z,1344.00
2023-05-10T05:51:50.452Z,1352.00
2023-05-10T05:52:50.371Z,1360.00
2023-05-10T05:53:50.441Z,1368.00
2023-05-10T05:54:51.291Z,1376.00
2023-05-10T05:55:50.396Z,1388.00
2023-05-10T05:56:50.405Z,1400.00
2023-05-10T05:57:50.346Z,1420.00
2023-05-10T05:58:50.294Z,1460.00
2023-05-10T05:59:51.386Z,1512.00
2023-05-10T06:00:50.359Z,1548.00
2023-05-10T06:01:50.262Z,1568.00
2023-05-10T06:02:50.416Z,1588.00
2023-05-10T06:03:51.903Z,1592.00
2023-05-10T06:04:51.227Z,1604.00
2023-05-10T06:05:50.202Z,1616.00
2023-05-10T06:06:50.214Z,1628.00
2023-05-10T06:07:50.158Z,1640.00
2023-05-10T06:08:50.862Z,1656.00
2023-05-10T06:09:51.138Z,1668.00
2023-05-10T06:10:50.150Z,1684.00
2023-05-10T06:11:50.171Z,1696.00
2023-05-10T06:12:50.167Z,1704.00
2023-05-10T06:13:50.132Z,1720.00
2023-05-10T06:14:51.039Z,1732.00
2023-05-10T06:15:50.084Z,1740.00
2023-05-10T06:16:50.111Z,1752.00
2023-05-10T06:17:50.077Z,1764.00
2023-05-10T06:18:50.096Z,1772.00
2023-05-10T06:19:50.026Z,1780.00
2023-05-10T06:20:51.053Z,1788.00
2023-05-10T06:21:51.234Z,1796.00
2023-05-10T06:22:49.994Z,1804.00
2023-05-10T06:23:50.929Z,1816.00
2023-05-10T06:24:49.957Z,1836.00
2023-05-10T06:25:51.256Z,1844.00
2023-05-10T06:26:49.979Z,1864.00
2023-05-10T06:27:52.883Z,1876.00
2023-05-10T06:28:49.885Z,1892.00
2023-05-10T06:29:52.203Z,1912.00
2023-05-10T06:30:51.359Z,1920.00
2023-05-10T06:31:50.859Z,1932.00
2023-05-10T06:32:49.873Z,1944.00
2023-05-10T06:33:49.870Z,1960.00
2023-05-10T06:34:49.820Z,1976.00
2023-05-10T06:35:49.837Z,1992.00
2023-05-10T06:36:49.793Z,2008.00
2023-05-10T06:37:50.840Z,2032.00
2023-05-10T06:38:49.827Z,2068.00
2023-05-10T06:39:49.778Z,2108.00
2023-05-10T06:40:49.801Z,2148.00
2023-05-10T06:41:49.766Z,2188.00
2023-05-10T06:42:50.663Z,2228.00
2023-05-10T06:43:49.712Z,2268.00
2023-05-10T06:44:49.796Z,2304.00
2023-05-10T06:45:49.696Z,2340.00
2023-05-10T06:46:49.683Z,2380.00
2023-05-10T06:47:49.676Z,2416.00
2023-05-10T06:48:50.567Z,2456.00
2023-05-10T06:49:49.724Z,2496.00
2023-05-10T06:50:49.616Z,2532.00
2023-05-10T06:51:49.634Z,2580.00
2023-05-10T06:52:51.175Z,2624.00
2023-05-10T06:53:50.518Z,2668.00
2023-05-10T06:54:49.657Z,2708.00
2023-05-10T06:55:50.492Z,2756.00
2023-05-10T06:56:49.555Z,2808.00
2023-05-10T06:57:49.536Z,2856.00
2023-05-10T06:58:49.600Z,2908.00
2023-05-10T06:59:50.573Z,2956.00
2023-05-10T07:00:49.527Z,3004.00
2023-05-10T07:01:49.531Z,3056.00
2023-05-10T07:02:50.447Z,3112.00
2023-05-10T07:03:49.503Z,3156.00
2023-05-10T07:04:49.564Z,3208.00
2023-05-10T07:05:50.424Z,3256.00
2023-05-10T07:06:49.443Z,3308.00
2023-05-10T07:07:49.442Z,3364.00
2023-05-10T07:08:49.442Z,3420.00
2023-05-10T07:09:49.392Z,3472.00
2023-05-10T07:10:50.335Z,3516.00
2023-05-10T07:11:49.400Z,3576.00
2023-05-10T07:12:49.429Z,3624.00
2023-05-10T07:13:49.326Z,3680.00
2023-05-10T07:14:49.279Z,3732.00
2023-05-10T07:15:50.311Z,3772.00
2023-05-10T07:16:50.243Z,3820.00
2023-05-10T07:17:49.370Z,3864.00
2023-05-10T07:18:49.339Z,3908.00
2023-05-10T07:19:49.307Z,3960.00
2023-05-10T07:20:49.221Z,3996.00
2023-05-10T07:21:49.235Z,4048.00
2023-05-10T07:22:50.210Z,4100.00
2023-05-10T07:23:49.214Z,4136.00
2023-05-10T07:24:49.243Z,4188.00
2023-05-10T07:25:49.158Z,4228.00
2023-05-10T07:26:49.143Z,4276.00
2023-05-10T07:27:50.081Z,4328.00
2023-05-10T07:28:49.121Z,4376.00
2023-05-10T07:29:49.202Z,4416.00
2023-05-10T07:30:49.153Z,4456.00
2023-05-10T07:31:49.251Z,4500.00
2023-05-10T07:32:49.227Z,4544.00
2023-05-10T07:33:50.035Z,4592.00
2023-05-10T07:34:49.156Z,4640.00
2023-05-10T07:35:49.103Z,4680.00
2023-05-10T07:36:49.012Z,4724.00
2023-05-10T07:37:49.068Z,4764.00
2023-05-10T07:38:49.954Z,4808.00
2023-05-10T07:39:48.951Z,4860.00
2023-05-10T07:40:49.963Z,4904.00
2023-05-10T07:41:49.003Z,4952.00
2023-05-10T07:42:48.973Z,5000.00
2023-05-10T07:43:48.986Z,5044.00
2023-05-10T07:44:49.841Z,5096.00
2023-05-10T07:45:48.978Z,5148.00
2023-05-10T07:46:48.930Z,5192.00
2023-05-10T07:47:48.890Z,5248.00
2023-05-10T07:48:48.916Z,5312.00
2023-05-10T07:49:49.821Z,5376.00
2023-05-10T07:50:49.097Z,5428.00
2023-05-10T07:51:48.917Z,5488.00
2023-05-10T07:52:48.844Z,5544.00
2023-05-10T07:53:48.848Z,5612.00
2023-05-10T07:54:49.754Z,5688.00
2023-05-10T07:55:48.820Z,5728.00
2023-05-10T07:56:48.728Z,5792.00
2023-05-10T07:57:48.726Z,5844.00
2023-05-10T07:58:48.772Z,5912.00
2023-05-10T07:59:49.660Z,5956.00
2023-05-10T08:00:48.691Z,6020.00
2023-05-10T08:01:48.727Z,6072.00
2023-05-10T08:02:48.792Z,6132.00
2023-05-10T08:03:48.950Z,6176.00
2023-05-10T08:04:49.626Z,6224.00
2023-05-10T08:05:48.653Z,6272.00
2023-05-10T08:06:48.878Z,6320.00
2023-05-10T08:07:48.633Z,6372.00
2023-05-10T08:08:48.637Z,6416.00
2023-05-10T08:09:49.651Z,6480.00
2023-05-10T08:10:48.654Z,6568.00
2023-05-10T08:11:48.590Z,6576.00
2023-05-10T08:12:48.544Z,6624.00
2023-05-10T08:13:48.528Z,6660.00
2023-05-10T08:14:48.560Z,6696.00
2023-05-10T08:15:49.692Z,6732.00
2023-05-10T08:16:49.454Z,6780.00
2023-05-10T08:17:48.556Z,6820.00
2023-05-10T08:18:48.578Z,6856.00
2023-05-10T08:19:48.499Z,6920.00
2023-05-10T08:20:48.447Z,6972.00
2023-05-10T08:21:49.416Z,7004.00
2023-05-10T08:22:50.010Z,7068.00
2023-05-10T08:23:48.485Z,7104.00
2023-05-10T08:24:48.524Z,7168.00
2023-05-10T08:25:48.380Z,7236.00
2023-05-10T08:26:48.386Z,7316.00
2023-05-10T08:27:49.283Z,7328.00
2023-05-10T08:28:48.347Z,7448.00
2023-05-10T08:29:50.493Z,7408.00
2023-05-10T08:30:48.356Z,7432.00
2023-05-10T08:31:48.549Z,7476.00
2023-05-10T08:32:48.386Z,7536.00
2023-05-10T08:33:49.187Z,7604.00
2023-05-10T08:34:48.237Z,7656.00
2023-05-10T08:35:48.249Z,7680.00
2023-05-10T08:36:48.307Z,7740.00
2023-05-10T08:38:45.693Z,7828.00
2023-05-10T08:39:46.648Z,7896.00
2023-05-10T08:40:45.682Z,7932.00
2023-05-10T08:41:45.686Z,7988.00
2023-05-10T08:42:45.665Z,8048.00
2023-05-10T08:43:45.653Z,8092.00
2023-05-10T08:44:46.307Z,8152.00
2023-05-10T08:45:46.559Z,8208.00
2023-05-10T08:46:45.633Z,8244.00
2023-05-10T08:47:45.656Z,8288.00
2023-05-10T08:48:45.579Z,8336.00
2023-05-10T08:49:45.551Z,8400.00
2023-05-10T08:50:45.642Z,8436.00
2023-05-10T08:51:46.435Z,8492.00
2023-05-10T08:52:45.528Z,8548.00
2023-05-10T08:53:45.512Z,8608.00
2023-05-10T08:54:45.519Z,8672.00
2023-05-10T08:55:45.485Z,8732.00
2023-05-10T08:56:46.142Z,8800.00
2023-05-10T08:57:46.424Z,8844.00
2023-05-10T08:58:45.410Z,8880.00
2023-05-10T08:59:45.457Z,8944.00
2023-05-10T09:00:45.433Z,9028.00
2023-05-10T09:01:45.399Z,9052.00
2023-05-10T09:02:45.387Z,9128.00
2023-05-10T09:03:45.426Z,9192.00
2023-05-10T09:04:45.434Z,9240.00
2023-05-10T09:05:45.341Z,9288.00
2023-05-10T09:06:45.399Z,9348.00
2023-05-10T09:07:45.323Z,9420.00
2023-05-10T09:08:45.368Z,9444.00
2023-05-10T09:09:46.243Z,9512.00
2023-05-10T09:10:45.268Z,9564.00
2023-05-10T09:11:45.272Z,9604.00
2023-05-10T09:12:45.297Z,9672.00
2023-05-10T09:13:45.274Z,9732.00
2023-05-10T09:14:46.228Z,9820.00
2023-05-10T09:15:45.607Z,9888.00
2023-05-10T09:16:45.258Z,9940.00
2023-05-10T09:17:45.233Z,9992.00
2023-05-10T09:18:45.225Z,10064.00
2023-05-10T09:19:45.198Z,10148.00
2023-05-10T09:20:46.106Z,10184.00
2023-05-10T09:21:45.142Z,10228.00
2023-05-10T09:22:45.139Z,10328.00
2023-05-10T09:23:47.364Z,10396.00
2023-05-10T09:24:45.113Z,10448.00
2023-05-10T09:25:46.044Z,10532.00
2023-05-10T09:26:45.071Z,10568.00
2023-05-10T09:27:45.114Z,10660.00
2023-05-10T09:28:45.031Z,10744.00
2023-05-10T09:29:45.059Z,10772.00
2023-05-10T09:30:45.363Z,10840.00
2023-05-10T09:31:46.003Z,10952.00
2023-05-10T09:32:45.041Z,11028.00
2023-05-10T09:33:44.977Z,11092.00
2023-05-10T09:34:45.084Z,11164.00
2023-05-10T09:35:45.046Z,11212.00
2023-05-10T09:36:44.932Z,11276.00
2023-05-10T09:37:45.932Z,11352.00
2023-05-10T09:38:44.941Z,11440.00
2023-05-10T09:39:44.924Z,11480.00
2023-05-10T09:40:44.889Z,11608.00
2023-05-10T09:41:44.956Z,11676.00
2023-05-10T09:42:44.877Z,11756.00
2023-05-10T09:43:45.800Z,11840.00
2023-05-10T09:44:44.858Z,11920.00
2023-05-10T09:45:44.840Z,11996.00
2023-05-10T09:46:44.858Z,12044.00
2023-05-10T09:47:44.892Z,12100.00
2023-05-10T09:48:46.744Z,12208.00
2023-05-10T09:49:44.816Z,12300.00
2023-05-10T09:50:44.772Z,12368.00
2023-05-10T09:51:44.767Z,12432.00
2023-05-10T09:52:44.742Z,12524.00
2023-05-10T09:53:45.672Z,12596.00
2023-05-10T09:54:44.724Z,12656.00
2023-05-10T09:55:44.729Z,12764.00
2023-05-10T09:56:44.725Z,12864.00
2023-05-10T09:57:44.709Z,12948.00
2023-05-10T09:58:44.682Z,12992.00
2023-05-10T09:59:45.570Z,13076.00
2023-05-10T10:00:44.694Z,13152.00
2023-05-10T10:01:44.744Z,13196.00
2023-05-10T10:02:45.308Z,13308.00
2023-05-10T10:03:44.774Z,13388.00
2023-05-10T10:04:44.640Z,13500.00
2023-05-10T10:05:45.576Z,13580.00
2023-05-10T10:06:44.564Z,13664.00
2023-05-10T10:07:44.577Z,13736.00
2023-05-10T10:08:44.602Z,13824.00
2023-05-10T10:09:44.550Z,14112.00
2023-05-10T10:10:44.530Z,14176.00
2023-05-10T10:11:45.496Z,14336.00
2023-05-10T10:12:44.848Z,14400.00
2023-05-10T10:13:44.541Z,14496.00
2023-05-10T10:14:44.546Z,14528.00
2023-05-10T10:15:44.498Z,14656.00
2023-05-10T10:16:59.577Z,14752.00
2023-05-10T10:17:45.982Z,14816.00
2023-05-10T10:18:44.469Z,14944.00
2023-05-10T10:19:44.418Z,15040.00
2023-05-10T10:20:44.420Z,15168.00
2023-05-10T10:21:44.399Z,15328.00
2023-05-10T10:22:45.426Z,15456.00
2023-05-10T10:23:44.363Z,15584.00
2023-05-10T10:24:44.484Z,15872.00
2023-05-10T10:25:44.329Z,16000.00
2023-05-10T10:26:44.398Z,16224.00
2023-05-10T10:27:45.251Z,16512.00
2023-05-10T10:28:44.989Z,17344.00
2023-05-10T10:29:44.313Z,29088.00
2023-05-10T10:30:44.262Z,60768.00
2023-05-10T10:31:44.382Z,79232.00
2023-05-10T10:32:44.388Z,83136.00
2023-05-10T10:33:46.881Z,72896.00
2023-05-10T10:34:44.231Z,70624.00
2023-05-10T10:35:44.185Z,72480.00
2023-05-10T10:36:44.244Z,78592.00
2023-05-10T10:37:44.192Z,78560.00
2023-05-10T10:38:44.222Z,71584.00
2023-05-10T10:39:45.127Z,74592.00
2023-05-10T10:40:44.168Z,75104.00
2023-05-10T10:41:44.183Z,77024.00
2023-05-10T10:42:44.138Z,75520.00
2023-05-10T10:43:44.125Z,71200.00
2023-05-10T10:44:45.032Z,77920.00
2023-05-10T10:45:44.116Z,75744.00
2023-05-10T10:46:44.107Z,75584.00
2023-05-10T10:47:44.193Z,78048.00
2023-05-10T10:48:44.038Z,73728.00
2023-05-10T10:49:44.046Z,76512.00
2023-05-10T10:50:44.965Z,76672.00
2023-05-10T10:51:44.035Z,81216.00
2023-05-10T10:52:44.076Z,80896.00
2023-05-10T10:53:44.001Z,80640.00
2023-05-10T10:54:44.066Z,82432.00
2023-05-10T10:55:43.982Z,80384.00
2023-05-10T10:56:44.894Z,83360.00
2023-05-10T10:57:43.977Z,83072.00
2023-05-10T10:58:43.990Z,83456.00
2023-05-10T10:59:44.131Z,83232.00
2023-05-10T11:00:43.975Z,78944.00
2023-05-10T11:01:44.841Z,79584.00
2023-05-10T11:02:43.955Z,79840.00
2023-05-10T11:03:43.913Z,80992.00
2023-05-10T11:04:43.974Z,80832.00
2023-05-10T11:05:43.959Z,79168.00
2023-05-10T11:06:43.892Z,82656.00
2023-05-10T11:07:44.822Z,80864.00
2023-05-10T11:08:43.901Z,79680.00
2023-05-10T11:09:43.836Z,82464.00
2023-05-10T11:10:43.896Z,81760.00
2023-05-10T11:11:43.952Z,79552.00
2023-05-10T11:12:44.749Z,81344.00
2023-05-10T11:13:43.850Z,80256.00
2023-05-10T11:14:43.886Z,79296.00
2023-05-10T11:15:43.814Z,78528.00
2023-05-10T11:16:43.883Z,75872.00
2023-05-10T11:17:44.873Z,74656.00
2023-05-10T11:18:43.798Z,77728.00
2023-05-10T11:19:44.430Z,73792.00
2023-05-10T11:20:43.806Z,69696.00
2023-05-10T11:21:43.789Z,75392.00
2023-05-10T11:22:44.735Z,76448.00
2023-05-10T11:23:43.703Z,76672.00
2023-05-10T11:24:43.750Z,75488.00
2023-05-10T11:25:43.716Z,75904.00
2023-05-10T11:26:43.732Z,78240.00
2023-05-10T11:27:44.614Z,75456.00
2023-05-10T11:28:43.632Z,74528.00
2023-05-10T11:29:43.614Z,73568.00
2023-05-10T11:30:43.654Z,73792.00
2023-05-10T11:31:43.657Z,84384.00
2023-05-10T11:32:43.680Z,87264.00
2023-05-10T11:33:44.564Z,83712.00
2023-05-10T11:34:43.592Z,84256.00
2023-05-10T11:35:43.920Z,92800.00
2023-05-10T11:36:43.603Z,98176.00
2023-05-10T11:37:43.545Z,96064.00
2023-05-10T11:38:43.613Z,89184.00
2023-05-10T11:39:44.488Z,91968.00
2023-05-10T11:40:43.594Z,94240.00
2023-05-10T11:41:43.530Z,93664.00
2023-05-10T11:42:43.539Z,96640.00
2023-05-10T11:43:43.525Z,98272.00
2023-05-10T11:44:44.576Z,96896.00
2023-05-10T11:45:43.509Z,97856.00
2023-05-10T11:46:43.556Z,103872.00
2023-05-10T11:47:43.497Z,104576.00
2023-05-10T11:48:43.454Z,105696.00
2023-05-10T11:49:44.426Z,112512.00
2023-05-10T11:50:43.492Z,112960.00
2023-05-10T11:51:43.463Z,106592.00
2023-05-10T11:52:43.461Z,108288.00
2023-05-10T11:53:43.472Z,109376.00
2023-05-10T11:54:43.586Z,106080.00
2023-05-10T11:55:44.363Z,104288.00
2023-05-10T11:56:43.466Z,95616.00
2023-05-10T11:57:43.432Z,98624.00
2023-05-10T11:58:43.391Z,102080.00
2023-05-10T11:59:43.458Z,97536.00
2023-05-10T12:00:44.297Z,94912.00
2023-05-10T12:01:43.335Z,90336.00
2023-05-10T12:02:43.468Z,84032.00
2023-05-10T12:03:43.430Z,92224.00
2023-05-10T12:04:43.446Z,102400.00
2023-05-10T12:05:43.301Z,96736.00
2023-05-10T12:06:44.248Z,88128.00
2023-05-10T12:07:43.329Z,90240.00
2023-05-10T12:08:43.352Z,92864.00
2023-05-10T12:09:44.328Z,90784.00
2023-05-10T12:10:43.289Z,86592.00
2023-05-10T12:11:44.720Z,85536.00
2023-05-10T12:12:43.280Z,85248.00
2023-05-10T12:13:43.246Z,86144.00
2023-05-10T12:14:43.236Z,87072.00
2023-05-10T12:15:43.262Z,83904.00
2023-05-10T12:16:44.233Z,80928.00
2023-05-10T12:17:43.532Z,83072.00
2023-05-10T12:18:43.231Z,87360.00
2023-05-10T12:19:43.177Z,89088.00
2023-05-10T12:20:43.190Z,86592.00